Time;durP1;ratioP1;P1;durP2;ratioP2;P2;SDS_P1;SDS_P2;PMS_P1;PMS_P2;Temp;Humidity;BMP_temperature;BMP_pressure;BME280_temperature;BME280_humidity;BME280_pressure;Samples;Min_cycle;Max_cycle;Signal;HPM_P1;HPM_P2
2021/08/16 00:02:05;;;;;;;14.17;10.10;;;;;;;20.69;100.00;100177.16;1784097;78;21504;-63
2021/08/16 00:04:31;;;;;;;16.33;11.63;;;;;;;20.68;100.00;100175.54;1782889;78;20990;-63
2021/08/16 00:06:58;;;;;;;16.47;10.93;;;;;;;20.70;100.00;100176.10;1785248;78;20943;-60
2021/08/16 00:09:26;;;;;;;15.87;10.00;;;;;;;20.62;100.00;100165.44;1783803;78;22387;-63
2021/08/16 00:11:53;;;;;;;14.23;10.20;;;;;;;20.68;100.00;100163.09;1779757;78;21091;-59
2021/08/16 00:14:21;;;;;;;20.93;11.00;;;;;;;20.78;100.00;100163.72;1784780;78;20911;-64
2021/08/16 00:16:48;;;;;;;15.13;10.03;;;;;;;20.75;100.00;100162.89;1775742;78;20975;-63
2021/08/16 00:19:15;;;;;;;14.83;10.90;;;;;;;20.71;100.00;100162.59;1779013;79;21006;-63
2021/08/16 00:21:43;;;;;;;13.50;9.73;;;;;;;20.74;100.00;100162.63;1781285;79;21037;-63
2021/08/16 00:24:10;;;;;;;19.17;10.70;;;;;;;20.78;100.00;100161.86;1779978;78;21151;-62
2021/08/16 00:26:38;;;;;;;14.23;9.50;;;;;;;20.76;100.00;100159.18;1783023;79;20918;-61
2021/08/16 00:29:05;;;;;;;14.63;10.07;;;;;;;20.72;100.00;100155.44;1782496;78;21053;-61
2021/08/16 00:31:33;;;;;;;18.63;13.33;;;;;;;20.74;100.00;100156.00;1782451;78;20935;-62
2021/08/16 00:34:00;;;;;;;20.60;15.67;;;;;;;20.63;100.00;100155.91;1785022;78;20899;-62
2021/08/16 00:36:27;;;;;;;21.67;14.93;;;;;;;20.59;100.00;100156.66;1785017;78;21177;-62
2021/08/16 00:38:55;;;;;;;19.17;14.93;;;;;;;20.51;100.00;100156.59;1781836;78;21581;-60
2021/08/16 00:41:23;;;;;;;20.80;14.97;;;;;;;20.47;100.00;100158.13;1785723;78;21049;-63
2021/08/16 00:43:52;;;;;;;23.10;15.63;;;;;;;20.42;100.00;100158.09;1782600;78;21006;-62
2021/08/16 00:46:19;;;;;;;19.60;14.70;;;;;;;20.33;100.00;100156.92;1783707;78;20931;-61
2021/08/16 00:48:47;;;;;;;22.97;15.93;;;;;;;20.28;100.00;100155.55;1782894;78;20987;-62
2021/08/16 00:51:13;;;;;;;20.67;14.63;;;;;;;20.26;100.00;100155.78;1787485;78;20994;-60
2021/08/16 00:53:41;;;;;;;21.40;15.63;;;;;;;20.17;100.00;100162.05;1780156;78;21049;-63
2021/08/16 00:56:10;;;;;;;19.13;13.93;;;;;;;20.11;100.00;100158.27;1780124;79;20947;-63
2021/08/16 00:58:39;;;;;;;19.33;15.00;;;;;;;20.12;100.00;100160.69;1781715;78;20923;-63
2021/08/16 01:01:07;;;;;;;17.77;13.23;;;;;;;20.05;100.00;100157.43;1782317;78;21480;-59
2021/08/16 01:03:33;;;;;;;22.07;13.70;;;;;;;19.99;100.00;100159.73;1751421;80;21320;-62
2021/08/16 01:06:02;;;;;;;21.30;14.83;;;;;;;20.04;100.00;100159.81;1785975;79;21053;-63
2021/08/16 01:08:30;;;;;;;22.50;16.47;;;;;;;20.04;100.00;100160.30;1785204;79;21485;-62
2021/08/16 01:10:58;;;;;;;20.47;15.10;;;;;;;20.04;100.00;100161.63;1784432;80;21025;-63
2021/08/16 01:13:25;;;;;;;19.87;14.80;;;;;;;20.02;100.00;100160.56;1784352;79;21784;-62
2021/08/16 01:15:57;;;;;;;20.10;14.07;;;;;;;19.93;100.00;100167.35;1785221;80;21045;-62
2021/08/16 01:18:24;;;;;;;21.37;13.83;;;;;;;19.85;100.00;100165.94;1785418;80;21473;-62
2021/08/16 01:20:52;;;;;;;22.23;14.57;;;;;;;19.81;100.00;100162.19;1785723;78;21650;-62
2021/08/16 01:23:22;;;;;;;21.60;15.40;;;;;;;19.77;100.00;100168.19;1784414;80;20987;-63
2021/08/16 01:25:49;;;;;;;20.30;14.67;;;;;;;19.72;100.00;100167.61;1784769;79;21128;-62
2021/08/16 01:28:17;;;;;;;20.80;14.67;;;;;;;19.77;100.00;100170.84;1785494;79;20935;-62
2021/08/16 01:30:45;;;;;;;20.57;15.23;;;;;;;19.72;100.00;100173.43;1784944;80;21009;-59
2021/08/16 01:33:12;;;;;;;19.40;13.47;;;;;;;19.57;100.00;100177.44;1784909;79;21846;-59
2021/08/16 01:35:39;;;;;;;21.97;15.33;;;;;;;19.58;100.00;100175.59;1784459;80;22529;-63
2021/08/16 01:38:05;;;;;;;17.93;13.97;;;;;;;19.44;100.00;100175.16;1782418;80;21173;-62
2021/08/16 01:40:32;;;;;;;21.20;13.20;;;;;;;19.37;100.00;100173.20;1784778;80;21009;-59
2021/08/16 01:43:00;;;;;;;21.43;14.53;;;;;;;19.29;100.00;100170.97;1785610;79;20982;-63
2021/08/16 01:45:27;;;;;;;20.70;14.47;;;;;;;19.49;100.00;100169.13;1781687;79;21480;-59
2021/08/16 01:47:53;;;;;;;19.97;13.77;;;;;;;19.40;100.00;100172.20;1779567;79;21077;-62
2021/08/16 01:50:20;;;;;;;19.23;13.57;;;;;;;19.25;100.00;100172.50;1779414;80;21869;-58
2021/08/16 01:52:46;;;;;;;20.00;13.97;;;;;;;19.22;100.00;100171.66;1778389;79;21488;-61
2021/08/16 01:55:13;;;;;;;20.67;13.50;;;;;;;19.20;100.00;100174.00;1786043;79;20995;-62
2021/08/16 01:57:39;;;;;;;19.50;13.33;;;;;;;19.27;100.00;100174.37;1781330;79;21014;-62
2021/08/16 02:00:07;;;;;;;21.97;13.53;;;;;;;19.23;100.00;100175.37;1783021;79;21559;-62
2021/08/16 02:02:41;;;;;;;21.07;13.37;;;;;;;19.24;100.00;100184.09;1785009;79;20899;-61
2021/08/16 02:05:09;;;;;;;17.50;13.30;;;;;;;19.28;100.00;100186.03;1790361;78;21065;-61
2021/08/16 02:07:36;;;;;;;19.37;12.57;;;;;;;19.26;100.00;100189.42;1790384;79;21030;-59
2021/08/16 02:10:04;;;;;;;19.03;12.03;;;;;;;19.28;100.00;100187.36;1793407;78;20943;-62
2021/08/16 02:12:32;;;;;;;19.10;13.33;;;;;;;19.31;100.00;100186.05;1798527;78;20922;-61
2021/08/16 02:14:59;;;;;;;17.17;12.43;;;;;;;19.38;100.00;100193.30;1793377;78;22546;-61
2021/08/16 02:17:28;;;;;;;22.27;14.07;;;;;;;19.34;100.00;100198.27;1795065;78;21511;-61
2021/08/16 02:19:55;;;;;;;17.73;12.07;;;;;;;19.32;100.00;100197.72;1792965;78;21623;-59
2021/08/16 02:22:23;;;;;;;26.13;16.10;;;;;;;19.32;100.00;100200.86;1793336;79;21646;-58
2021/08/16 02:24:50;;;;;;;18.17;13.03;;;;;;;19.36;100.00;100197.52;1794440;78;21003;-61
2021/08/16 02:27:17;;;;;;;21.67;13.27;;;;;;;19.31;100.00;100198.74;1794817;78;21209;-62
2021/08/16 02:29:45;;;;;;;18.23;13.13;;;;;;;19.22;100.00;100203.37;1794487;78;21092;-61
2021/08/16 02:32:11;;;;;;;18.90;13.20;;;;;;;19.03;100.00;100202.81;1793088;78;20955;-62
2021/08/16 02:34:38;;;;;;;22.27;14.97;;;;;;;19.04;100.00;100205.20;1796363;78;21045;-61
2021/08/16 02:37:04;;;;;;;23.00;14.53;;;;;;;18.98;100.00;100206.17;1793502;78;21061;-61
2021/08/16 02:39:31;;;;;;;22.00;15.50;;;;;;;18.89;100.00;100207.59;1793326;79;21135;-62
2021/08/16 02:41:57;;;;;;;25.80;17.30;;;;;;;18.89;100.00;100207.07;1793280;78;21065;-61
2021/08/16 02:44:24;;;;;;;23.33;15.97;;;;;;;18.96;100.00;100206.92;1792207;78;20895;-62
2021/08/16 02:46:52;;;;;;;24.53;17.97;;;;;;;18.91;100.00;100201.56;1790833;78;20895;-62
2021/08/16 02:49:19;;;;;;;25.27;17.80;;;;;;;18.93;100.00;100207.39;1793666;78;21077;-61
2021/08/16 02:51:45;;;;;;;24.90;17.97;;;;;;;18.92;100.00;100211.08;1797596;78;21865;-62
2021/08/16 02:54:13;;;;;;;28.13;18.10;;;;;;;19.06;100.00;100212.38;1792928;78;21468;-62
2021/08/16 02:56:40;;;;;;;24.60;17.80;;;;;;;19.08;100.00;100212.12;1792573;78;20994;-58
2021/08/16 02:59:06;;;;;;;27.77;18.73;;;;;;;19.06;100.00;100218.19;1792972;78;21053;-61
2021/08/16 03:01:33;;;;;;;25.33;17.20;;;;;;;19.03;100.00;100224.74;1732836;78;21007;-62
2021/08/16 03:04:00;;;;;;;25.83;18.53;;;;;;;19.15;100.00;100222.02;1694467;82;21195;-62
2021/08/16 03:06:28;;;;;;;29.37;19.90;;;;;;;19.21;100.00;100218.43;1695190;82;21132;-62
2021/08/16 03:08:57;;;;;;;29.33;20.20;;;;;;;19.27;100.00;100226.70;1694401;82;21583;-61
2021/08/16 03:11:24;;;;;;;31.43;19.87;;;;;;;19.44;100.00;100231.47;1695216;82;21058;-61
2021/08/16 03:13:50;;;;;;;29.07;20.30;;;;;;;19.59;100.00;100226.92;1695025;82;21500;-59
2021/08/16 03:16:17;;;;;;;26.47;18.80;;;;;;;19.72;100.00;100227.64;1694614;82;21133;-61
2021/08/16 03:18:44;;;;;;;27.03;19.50;;;;;;;19.83;100.00;100225.41;1694320;82;21073;-62
2021/08/16 03:21:11;;;;;;;27.73;19.70;;;;;;;19.99;100.00;100218.47;1695142;82;21089;-62
2021/08/16 03:23:38;;;;;;;27.80;19.70;;;;;;;20.13;100.00;100221.03;1695013;82;20954;-62
2021/08/16 03:26:04;;;;;;;22.83;18.47;;;;;;;20.19;100.00;100220.02;1694696;82;21101;-59
2021/08/16 03:28:30;;;;;;;23.70;18.97;;;;;;;20.24;100.00;100220.63;1694963;82;21097;-61
2021/08/16 03:30:57;;;;;;;24.90;17.77;;;;;;;20.40;100.00;100226.36;1694408;82;21001;-62
2021/08/16 03:33:24;;;;;;;25.40;19.00;;;;;;;20.57;100.00;100228.93;1695248;82;21097;-61
2021/08/16 03:35:50;;;;;;;24.03;18.53;;;;;;;20.98;100.00;100230.64;1695370;82;21879;-62
2021/08/16 03:38:17;;;;;;;23.87;18.20;;;;;;;21.69;100.00;100234.36;1694599;82;21033;-61
2021/08/16 03:40:45;;;;;;;23.83;16.97;;;;;;;22.41;100.00;100240.26;1695320;82;21207;-63
2021/08/16 03:43:11;;;;;;;22.60;17.70;;;;;;;23.30;100.00;100228.94;1694446;82;20927;-63
2021/08/16 03:45:39;;;;;;;21.20;17.20;;;;;;;24.23;100.00;100224.94;1695045;82;21069;-63
2021/08/16 03:48:06;;;;;;;23.53;18.67;;;;;;;25.09;100.00;100217.45;1695187;82;21180;-63
2021/08/16 03:50:33;;;;;;;24.33;19.10;;;;;;;25.97;100.00;100220.31;1694707;82;21575;-63
2021/08/16 03:53:00;;;;;;;23.25;18.17;;;;;;;26.75;100.00;100210.95;1694080;82;21132;-62
2021/08/16 03:55:27;;;;;;;23.40;18.00;;;;;;;27.61;100.00;100206.52;1695238;82;22491;-64
2021/08/16 03:57:53;;;;;;;23.30;19.50;;;;;;;28.55;100.00;100207.78;1695355;82;21559;-64
2021/08/16 04:00:20;;;;;;;24.43;19.20;;;;;;;29.29;100.00;100208.10;1695402;82;21183;-62
2021/08/16 04:02:47;;;;;;;21.17;17.35;;;;;;;29.88;100.00;100211.06;1694830;82;21426;-63
2021/08/16 04:05:13;;;;;;;18.92;16.55;;;;;;;30.49;100.00;100211.92;1694583;82;22513;-64
2021/08/16 04:07:47;;;;;;;19.27;16.73;;;;;;;30.95;100.00;100212.62;1692552;82;21083;-63
2021/08/16 04:10:13;;;;;;;21.87;17.25;;;;;;;31.42;100.00;100215.88;1692883;82;21026;-64
2021/08/16 04:12:42;;;;;;;19.75;16.48;;;;;;;31.83;100.00;100213.06;1692043;82;20986;-64
2021/08/16 04:15:16;;;;;;;18.05;15.85;;;;;;;32.30;100.00;100210.98;1694743;82;20974;-60
2021/08/16 04:17:44;;;;;;;20.48;16.82;;;;;;;32.78;92.39;100215.59;1693323;82;22149;-64
2021/08/16 04:20:12;;;;;;;21.57;16.97;;;;;;;33.12;88.34;100218.51;1695379;82;21476;-60
2021/08/16 04:22:38;;;;;;;17.87;15.15;;;;;;;33.52;82.86;100221.93;1695001;82;20975;-63
2021/08/16 04:25:10;;;;;;;19.67;16.95;;;;;;;34.05;75.63;100224.92;1694944;82;21179;-61
2021/08/16 04:27:40;;;;;;;17.85;15.90;;;;;;;34.40;66.03;100227.09;1695163;82;21653;-64
2021/08/16 04:30:08;;;;;;;18.03;16.20;;;;;;;34.73;60.62;100220.64;1695677;82;22203;-65
2021/08/16 04:32:35;;;;;;;19.65;16.52;;;;;;;34.92;61.11;100222.11;1694500;82;21143;-62
2021/08/16 04:35:01;;;;;;;16.95;15.08;;;;;;;35.20;58.14;100226.72;1695138;82;21131;-61
2021/08/16 04:37:27;;;;;;;16.97;15.15;;;;;;;35.51;53.69;100225.36;1693793;82;21002;-64
2021/08/16 04:39:54;;;;;;;16.90;15.08;;;;;;;35.89;51.71;100227.16;1695184;82;21076;-64
2021/08/16 04:42:20;;;;;;;17.60;15.80;;;;;;;36.24;50.24;100217.06;1695166;82;21146;-60
2021/08/16 04:44:47;;;;;;;17.48;15.65;;;;;;;36.53;47.53;100213.01;1694540;82;20907;-63
2021/08/16 04:47:13;;;;;;;18.40;16.27;;;;;;;36.72;46.47;100212.19;1695171;82;21077;-60
2021/08/16 04:49:40;;;;;;;17.62;15.32;;;;;;;36.92;45.09;100211.55;1694683;82;21142;-64
2021/08/16 04:52:07;;;;;;;22.62;16.77;;;;;;;37.16;44.86;100216.43;1695278;82;21141;-63
2021/08/16 04:54:34;;;;;;;16.70;14.83;;;;;;;37.47;43.44;100207.25;1695001;82;21147;-61
2021/08/16 04:57:00;;;;;;;19.67;15.95;;;;;;;37.73;41.63;100207.78;1694279;82;21524;-60
2021/08/16 04:59:27;;;;;;;18.15;16.27;;;;;;;37.82;41.08;100206.95;1636105;86;22319;-58
2021/08/16 05:01:54;;;;;;;16.60;14.78;;;;;;;37.85;40.32;100202.72;1665211;84;21177;-61
2021/08/16 05:04:21;;;;;;;19.20;15.83;;;;;;;37.87;40.08;100207.98;1666750;84;21174;-60
2021/08/16 05:06:47;;;;;;;16.73;14.80;;;;;;;38.07;39.17;100207.86;1666378;83;21202;-58
2021/08/16 05:09:14;;;;;;;18.15;16.30;;;;;;;38.11;38.26;100201.88;1698167;82;21072;-62
2021/08/16 05:11:40;;;;;;;19.55;17.52;;;;;;;38.04;38.30;100195.80;1697327;82;21017;-64
2021/08/16 05:14:08;;;;;;;19.65;17.57;;;;;;;38.04;38.09;100197.73;1698169;82;21080;-64
2021/08/16 05:16:35;;;;;;;18.85;16.95;;;;;;;37.87;38.04;100201.17;1697998;82;21002;-64
2021/08/16 05:19:01;;;;;;;18.12;16.30;;;;;;;37.88;38.36;100204.13;1697193;82;21202;-64
2021/08/16 05:21:30;;;;;;;18.98;17.02;;;;;;;38.14;38.02;100200.55;1697604;82;21128;-64
2021/08/16 05:23:56;;;;;;;18.55;16.70;;;;;;;38.27;36.94;100197.02;1668714;82;21678;-64
2021/08/16 05:26:23;;;;;;;19.95;17.20;;;;;;;38.46;36.22;100201.53;1698328;82;21029;-64
2021/08/16 05:28:51;;;;;;;19.73;17.62;;;;;;;38.54;36.30;100196.36;1698168;82;21068;-60
2021/08/16 05:31:17;;;;;;;17.50;15.68;;;;;;;38.87;35.74;100205.07;1697703;82;21141;-62
2021/08/16 05:33:44;;;;;;;16.02;14.40;;;;;;;39.14;34.94;100211.70;1697810;82;21097;-64
2021/08/16 05:36:10;;;;;;;17.10;15.18;;;;;;;39.00;34.19;100211.01;1697968;82;20920;-65
2021/08/16 05:38:37;;;;;;;18.60;14.13;;;;;;;38.58;34.20;100216.83;1698017;82;21501;-64
2021/08/16 05:41:04;;;;;;;19.40;14.05;;;;;;;38.09;34.29;100211.00;1695916;82;21452;-59
2021/08/16 05:43:32;;;;;;;14.53;13.03;;;;;;;37.59;35.41;100215.19;1698046;82;21088;-63
2021/08/16 05:45:58;;;;;;;13.58;12.10;;;;;;;37.23;35.88;100211.89;1697024;82;21112;-62
2021/08/16 05:48:25;;;;;;;15.48;13.38;;;;;;;36.96;36.11;100213.78;1698283;82;21684;-63
2021/08/16 05:50:51;;;;;;;13.60;12.20;;;;;;;36.42;36.36;100219.35;1698050;82;20974;-62
2021/08/16 05:53:18;;;;;;;15.32;12.47;;;;;;;35.98;37.12;100220.95;1697305;82;21551;-63
2021/08/16 05:55:45;;;;;;;14.58;12.85;;;;;;;35.69;37.60;100227.70;1698039;82;21155;-60
2021/08/16 05:58:12;;;;;;;14.60;12.82;;;;;;;35.42;39.07;100224.73;1697482;82;21501;-62
2021/08/16 06:00:38;;;;;;;14.47;12.43;;;;;;;35.19;38.72;100227.83;1697909;82;21121;-60
2021/08/16 06:03:05;;;;;;;13.40;11.75;;;;;;;34.74;39.99;100224.38;1691438;82;21069;-60
2021/08/16 06:05:33;;;;;;;14.15;12.43;;;;;;;34.64;40.87;100227.58;1690261;82;21050;-61
2021/08/16 06:07:59;;;;;;;13.20;11.70;;;;;;;34.88;41.00;100228.00;1689626;82;21131;-61
2021/08/16 06:10:26;;;;;;;13.00;11.53;;;;;;;35.16;39.93;100227.17;1689163;82;21121;-59
2021/08/16 06:12:53;;;;;;;14.43;12.15;;;;;;;35.45;39.97;100231.36;1690216;82;21189;-62
2021/08/16 06:15:23;;;;;;;16.65;11.53;;;;;;;35.39;39.48;100232.21;1689857;82;20915;-59
2021/08/16 06:17:50;;;;;;;15.03;11.35;;;;;;;35.30;39.80;100230.23;1690246;82;21109;-62
2021/08/16 06:20:17;;;;;;;13.28;11.53;;;;;;;35.41;40.30;100229.14;1690456;82;21140;-62
2021/08/16 06:22:46;;;;;;;16.32;12.35;;;;;;;35.39;39.61;100231.43;1689697;82;21093;-61
2021/08/16 06:25:12;;;;;;;13.98;12.55;;;;;;;35.33;41.00;100237.67;1690715;82;21103;-64
2021/08/16 06:27:39;;;;;;;14.98;13.38;;;;;;;35.47;40.09;100232.59;1688862;82;20936;-62
2021/08/16 06:30:07;;;;;;;15.98;12.73;;;;;;;35.60;39.79;100229.23;1691013;82;21631;-62
2021/08/16 06:32:35;;;;;;;14.75;11.80;;;;;;;35.65;38.71;100230.33;1689070;82;21160;-61
2021/08/16 06:35:04;;;;;;;16.40;12.82;;;;;;;35.87;38.37;100231.56;1690070;82;21579;-61
2021/08/16 06:37:30;;;;;;;13.72;11.68;;;;;;;36.10;37.96;100234.98;1689295;82;21089;-59
2021/08/16 06:39:57;;;;;;;13.55;11.30;;;;;;;35.97;37.86;100240.52;1689050;82;21012;-63
2021/08/16 06:42:24;;;;;;;13.43;11.75;;;;;;;36.06;37.71;100236.27;1689092;84;21077;-60
2021/08/16 06:44:50;;;;;;;15.50;12.28;;;;;;;36.26;37.55;100231.65;1689169;82;21147;-61
2021/08/16 06:47:17;;;;;;;13.95;12.33;;;;;;;36.36;36.96;100230.27;1689525;82;21705;-60
2021/08/16 06:49:44;;;;;;;15.13;12.23;;;;;;;36.42;36.56;100233.70;1689151;82;21047;-61
2021/08/16 06:52:10;;;;;;;14.13;12.23;;;;;;;36.32;36.94;100235.63;1690247;82;21006;-62
2021/08/16 06:54:37;;;;;;;14.05;11.53;;;;;;;36.30;36.71;100228.44;1689723;82;20998;-60
2021/08/16 06:57:04;;;;;;;14.23;11.73;;;;;;;36.27;37.12;100237.28;1689515;82;21130;-61
2021/08/16 06:59:34;;;;;;;13.05;11.22;;;;;;;36.28;37.05;100241.56;1689828;82;20947;-59
2021/08/16 07:02:01;;;;;;;;;;;;;;;36.34;37.06;100242.86;1694270;83;21858;-61
2021/08/16 07:04:28;;;;;;;14.80;11.75;;;;;;;36.17;37.10;100242.70;1697520;82;20736;-59
2021/08/16 07:06:54;;;;;;;14.28;11.63;;;;;;;35.92;37.45;100245.45;1698173;82;21634;-62
2021/08/16 07:09:21;;;;;;;12.82;11.43;;;;;;;35.78;37.22;100246.69;1698512;82;21124;-61
2021/08/16 07:11:48;;;;;;;13.90;11.28;;;;;;;35.61;38.14;100246.27;1697668;82;20950;-62
2021/08/16 07:14:14;;;;;;;14.00;11.60;;;;;;;35.74;38.31;100246.40;1698322;82;21170;-61
2021/08/16 07:16:41;;;;;;;13.75;11.15;;;;;;;35.92;37.74;100244.09;1697394;82;21062;-61
2021/08/16 07:19:08;;;;;;;13.10;11.63;;;;;;;36.02;37.67;100248.97;1666976;83;21190;-61
2021/08/16 07:21:35;;;;;;;13.55;11.22;;;;;;;36.25;37.49;100238.20;1698211;82;21148;-59
2021/08/16 07:24:02;;;;;;;11.97;10.68;;;;;;;36.35;37.12;100236.28;1697806;82;20934;-61
2021/08/16 07:26:29;;;;;;;15.85;11.80;;;;;;;36.47;36.03;100234.80;1698249;82;21001;-61
2021/08/16 07:28:55;;;;;;;14.93;10.08;;;;;;;36.42;36.32;100238.36;1701972;82;21008;-62
2021/08/16 07:31:22;;;;;;;13.90;11.53;;;;;;;36.43;36.02;100239.92;1698281;82;21117;-61
2021/08/16 07:33:48;;;;;;;12.95;10.65;;;;;;;36.23;36.32;100244.57;1666224;83;21873;-62
2021/08/16 07:36:14;;;;;;;13.35;11.15;;;;;;;36.14;36.69;100238.55;1698112;82;21045;-61
2021/08/16 07:38:41;;;;;;;13.08;11.15;;;;;;;36.03;37.36;100228.28;1715998;82;21018;-60
2021/08/16 07:41:07;;;;;;;13.70;12.07;;;;;;;36.00;37.87;100233.05;1713444;82;21113;-62
2021/08/16 07:43:34;;;;;;;16.40;11.30;;;;;;;35.90;37.81;100233.58;1690108;82;21571;-61
2021/08/16 07:46:01;;;;;;;17.25;12.28;;;;;;;35.82;37.61;100233.98;1715555;82;21964;-61
2021/08/16 07:48:28;;;;;;;14.38;11.95;;;;;;;35.88;37.92;100231.80;1711786;82;21177;-59
2021/08/16 07:50:56;;;;;;;13.78;12.28;;;;;;;35.81;38.14;100233.00;1713218;82;20969;-62
2021/08/16 07:53:22;;;;;;;14.20;12.00;;;;;;;35.84;37.42;100229.58;1685791;83;21096;-61
2021/08/16 07:55:48;;;;;;;16.57;12.10;;;;;;;35.92;38.18;100228.59;1716126;82;21081;-60
2021/08/16 07:58:16;;;;;;;14.20;11.57;;;;;;;36.09;38.50;100227.41;1709052;82;21100;-60
2021/08/16 08:00:43;;;;;;;13.93;11.48;;;;;;;36.06;37.49;100228.13;1713329;82;21038;-59
2021/08/16 08:03:09;;;;;;;15.58;12.33;;;;;;;35.86;37.73;100228.64;1709989;82;21003;-61
2021/08/16 08:05:36;;;;;;;13.72;11.38;;;;;;;35.77;37.54;100233.50;1709592;82;21475;-61
2021/08/16 08:08:06;;;;;;;13.75;11.68;;;;;;;35.70;38.52;100225.20;1703949;82;21030;-61
2021/08/16 08:10:33;;;;;;;13.53;11.45;;;;;;;35.85;38.67;100227.08;1703217;82;21807;-59
2021/08/16 08:13:00;;;;;;;16.00;12.03;;;;;;;35.99;37.90;100222.00;1706780;82;21006;-61
2021/08/16 08:15:26;;;;;;;14.43;11.28;;;;;;;36.04;38.08;100224.99;1709471;82;21591;-62
2021/08/16 08:17:53;;;;;;;13.72;11.00;;;;;;;35.98;37.48;100227.19;1699516;82;21037;-62
2021/08/16 08:20:20;;;;;;;13.45;11.50;;;;;;;35.86;36.65;100227.29;1706715;82;21088;-62
2021/08/16 08:22:46;;;;;;;16.02;11.65;;;;;;;35.67;37.89;100222.61;1698983;82;21153;-62
2021/08/16 08:25:13;;;;;;;15.38;11.68;;;;;;;35.77;37.93;100222.64;1647932;85;21111;-62
2021/08/16 08:27:39;;;;;;;14.98;11.12;;;;;;;35.90;36.78;100215.94;1667942;84;21090;-59
2021/08/16 08:30:08;;;;;;;13.30;11.55;;;;;;;36.40;36.96;100218.34;1672218;84;21499;-60
2021/08/16 08:32:50;;;;;;;15.18;11.30;;;;;;;36.90;34.97;100218.48;1671236;84;21090;-60
2021/08/16 08:35:19;;;;;;;12.98;10.75;;;;;;;36.74;34.35;100209.09;1667508;84;21158;-61
2021/08/16 08:37:48;;;;;;;14.87;11.48;;;;;;;36.49;35.84;100211.38;1670659;84;21085;-59
2021/08/16 08:40:15;;;;;;;12.35;11.05;;;;;;;36.50;35.81;100202.08;1650544;85;21067;-61
2021/08/16 08:42:44;;;;;;;19.55;11.55;;;;;;;36.47;36.70;100200.08;1678147;84;20915;-60
2021/08/16 08:45:11;;;;;;;14.35;11.28;;;;;;;36.66;35.92;100193.83;1678471;84;21094;-60
2021/08/16 08:47:38;;;;;;;13.80;11.63;;;;;;;36.96;35.08;100192.63;1702475;82;21181;-60
2021/08/16 08:50:05;;;;;;;15.08;11.85;;;;;;;36.94;35.69;100186.20;1702451;82;21094;-60
2021/08/16 08:52:33;;;;;;;14.90;12.55;;;;;;;36.83;35.55;100185.79;1706972;82;33660;-60
2021/08/16 08:55:00;;;;;;;15.23;12.35;;;;;;;36.76;36.22;100185.09;1697429;82;21086;-61
2021/08/16 08:57:30;;;;;;;14.58;13.08;;;;;;;36.60;36.42;100184.42;1694904;82;21540;-61
2021/08/16 08:59:55;;;;;;;14.58;12.45;;;;;;;36.35;36.29;100188.00;1695261;82;21152;-62
2021/08/16 09:02:21;;;;;;;13.72;12.13;;;;;;;36.27;37.01;100183.00;1694517;82;20999;-60
2021/08/16 09:04:53;;;;;;;14.53;12.18;;;;;;;36.49;36.61;100180.93;1694447;82;21641;-62
2021/08/16 09:07:39;;;;;;;13.62;11.43;;;;;;;36.75;37.73;100179.45;1695502;82;21473;-62
2021/08/16 09:10:14;;;;;;;13.28;11.12;;;;;;;37.32;36.26;100175.53;1694120;84;21547;-59
2021/08/16 09:12:41;;;;;;;14.93;12.00;;;;;;;37.31;34.89;100173.95;1663676;84;21200;-59
2021/08/16 09:15:23;;;;;;;12.47;11.10;;;;;;;37.01;35.56;100174.10;1695095;82;21125;-60
2021/08/16 09:17:53;;;;;;;13.35;11.85;;;;;;;36.98;35.83;100169.39;1691816;82;20958;-62
2021/08/16 09:20:21;;;;;;;;;;;;;;;36.98;34.77;100169.39;1696660;82;21085;-62
2021/08/16 09:23:05;;;;;;;14.25;12.20;;;;;;;36.78;34.70;100163.19;1695136;82;20143;-63
2021/08/16 09:25:38;;;;;;;13.22;11.33;;;;;;;36.42;35.15;100161.77;1693768;82;21580;-60
2021/08/16 09:28:06;;;;;;;16.37;12.55;;;;;;;36.15;36.59;100166.30;1694648;82;21102;-61
2021/08/16 09:30:37;;;;;;;14.28;12.80;;;;;;;36.13;35.69;100161.01;1694687;82;21617;-61
2021/08/16 09:33:15;;;;;;;17.15;12.40;;;;;;;36.21;35.76;100160.78;1695359;82;21046;-61
2021/08/16 09:35:55;;;;;;;15.10;12.10;;;;;;;36.27;35.76;100158.00;1694345;82;21078;-61
2021/08/16 09:38:42;;;;;;;17.25;12.53;;;;;;;36.29;35.48;100158.98;1692273;82;21146;-62
2021/08/16 09:41:23;;;;;;;13.75;12.15;;;;;;;36.37;35.21;100157.19;1694062;82;21062;-61
2021/08/16 09:43:53;;;;;;;15.48;11.83;;;;;;;36.49;34.37;100158.43;1694583;82;20993;-62
2021/08/16 09:46:21;;;;;;;13.75;10.70;;;;;;;36.26;35.19;100160.51;1694926;82;20991;-62
2021/08/16 09:48:59;;;;;;;14.98;12.03;;;;;;;36.10;35.25;100161.72;1693953;82;21419;-59
2021/08/16 09:51:25;;;;;;;13.93;12.35;;;;;;;35.90;35.21;100163.05;1698247;82;21161;-61
2021/08/16 09:53:53;;;;;;;17.20;12.23;;;;;;;35.81;35.92;100161.91;1694075;82;21438;-62
2021/08/16 09:56:21;;;;;;;15.85;11.85;;;;;;;35.62;35.02;100164.59;1694493;82;21078;-62
2021/08/16 09:58:48;;;;;;;17.98;13.00;;;;;;;35.19;35.82;100166.29;1693942;82;20963;-62
2021/08/16 10:01:14;;;;;;;15.32;11.88;;;;;;;34.92;36.13;100163.09;1694998;82;21129;-61
2021/08/16 10:03:41;;;;;;;16.67;12.45;;;;;;;34.68;37.42;100173.52;1698109;82;21132;-63
2021/08/16 10:06:08;;;;;;;13.70;12.30;;;;;;;34.56;37.22;100165.69;1702537;82;21044;-62
2021/08/16 10:08:39;;;;;;;15.25;12.37;;;;;;;34.55;37.58;100162.77;1709531;82;21082;-60
2021/08/16 10:11:07;;;;;;;14.55;12.30;;;;;;;34.84;37.31;100162.13;1709385;82;22469;-62
2021/08/16 10:13:36;;;;;;;16.77;13.75;;;;;;;34.82;37.33;100167.13;1709169;82;20988;-62
2021/08/16 10:16:12;;;;;;;18.77;13.40;;;;;;;34.47;38.31;100160.17;1705880;82;21554;-62
2021/08/16 10:18:47;;;;;;;18.20;13.55;;;;;;;34.38;39.79;100157.06;1681868;84;20980;-60
2021/08/16 10:21:21;;;;;;;14.87;12.23;;;;;;;34.51;40.79;100152.42;1713305;82;21031;-62
2021/08/16 10:23:51;;;;;;;16.80;12.78;;;;;;;34.69;39.96;100158.84;1679360;84;20917;-62
2021/08/16 10:26:30;;;;;;;16.52;13.78;;;;;;;34.90;39.76;100158.03;1714305;82;21054;-60
2021/08/16 10:29:02;;;;;;;15.68;12.55;;;;;;;35.18;38.39;100155.81;1711637;82;21109;-62
2021/08/16 10:31:35;;;;;;;16.62;13.30;;;;;;;35.37;37.01;100157.23;1711468;82;21014;-61
2021/08/16 10:34:01;;;;;;;15.15;12.05;;;;;;;35.77;36.98;100161.63;1705793;82;20947;-59
2021/08/16 10:36:28;;;;;;;14.73;12.65;;;;;;;36.07;36.23;100152.38;1707323;82;21028;-63
2021/08/16 10:39:01;;;;;;;15.03;12.98;;;;;;;36.19;35.68;100161.73;1708449;82;21031;-62
2021/08/16 10:41:42;;;;;;;15.70;12.90;;;;;;;36.13;35.67;100156.36;1708237;82;21471;-62
2021/08/16 10:44:14;;;;;;;;;;;;;;;36.03;35.91;100147.46;1713100;82;20961;-60
2021/08/16 10:46:41;;;;;;;14.30;12.45;;;;;;;36.29;35.47;100145.41;1714865;82;20256;-62
2021/08/16 10:49:12;;;;;;;15.88;13.13;;;;;;;36.45;35.28;100141.27;1707628;82;21003;-61
2021/08/16 10:51:45;;;;;;;13.90;11.80;;;;;;;36.41;35.56;100137.12;1706785;82;21064;-61
2021/08/16 10:54:30;;;;;;;17.67;13.05;;;;;;;36.37;35.80;100136.28;1699669;82;21986;-61
2021/08/16 10:56:57;;;;;;;15.98;12.85;;;;;;;36.46;35.37;100133.33;1706188;82;21029;-61
2021/08/16 10:59:27;;;;;;;18.42;13.43;;;;;;;36.42;35.41;100144.12;1710138;82;21001;-61
2021/08/16 11:01:56;;;;;;;15.28;12.73;;;;;;;36.13;36.11;100134.66;1705539;82;20986;-63
2021/08/16 11:04:31;;;;;;;15.30;12.80;;;;;;;36.13;36.14;100132.52;1707154;82;21463;-61
2021/08/16 11:07:02;;;;;;;15.45;12.65;;;;;;;36.38;36.47;100124.27;1709851;82;21139;-61
2021/08/16 11:09:32;;;;;;;15.25;12.82;;;;;;;36.67;34.98;100126.13;1703411;82;20966;-59
2021/08/16 11:12:05;;;;;;;15.10;13.58;;;;;;;36.68;34.73;100125.01;1704826;82;21117;-62